createdAt,value
2022-12-08T00:01:28.752Z,59.63
2022-12-08T00:03:58.627Z,59.26
2022-12-08T00:06:46.274Z,59.18
2022-12-08T00:09:25.757Z,59.09
2022-12-08T00:11:56.557Z,59.20
2022-12-08T00:14:35.490Z,59.94
2022-12-08T00:17:04.115Z,59.76
2022-12-08T00:19:31.949Z,59.82
2022-12-08T00:21:59.781Z,60.03
2022-12-08T00:24:31.435Z,59.84
2022-12-08T00:26:59.051Z,59.88
2022-12-08T00:29:26.527Z,59.76
2022-12-08T00:31:54.256Z,59.96
2022-12-08T00:34:21.908Z,59.97
2022-12-08T00:36:49.263Z,59.65
2022-12-08T00:39:17.336Z,59.65
2022-12-08T00:42:03.825Z,59.51
2022-12-08T00:44:31.247Z,59.39
2022-12-08T00:46:59.007Z,59.34
2022-12-08T00:49:26.556Z,59.53
2022-12-08T00:51:53.897Z,60.17
2022-12-08T00:54:22.967Z,59.92
2022-12-08T00:56:50.439Z,59.52
2022-12-08T00:59:17.840Z,59.19
2022-12-08T01:01:45.957Z,59.42
2022-12-08T01:04:15.717Z,59.08
2022-12-08T01:06:43.826Z,59.13
2022-12-08T01:09:11.822Z,59.20
2022-12-08T01:11:39.234Z,59.57
2022-12-08T01:14:06.530Z,59.29
2022-12-08T01:16:36.244Z,58.91
2022-12-08T01:19:04.388Z,58.69
2022-12-08T01:21:31.788Z,59.08
2022-12-08T01:24:00.422Z,58.79
2022-12-08T01:26:27.831Z,59.13
2022-12-08T01:28:55.255Z,59.22
2022-12-08T01:31:23.411Z,59.53
2022-12-08T01:33:51.212Z,59.52
2022-12-08T01:36:23.943Z,58.96
2022-12-08T01:38:52.097Z,58.62
2022-12-08T01:41:22.035Z,58.75
2022-12-08T01:44:02.817Z,58.99
2022-12-08T01:46:32.521Z,58.68
2022-12-08T01:49:04.125Z,58.83
2022-12-08T01:51:35.662Z,58.88
2022-12-08T01:54:03.883Z,59.35
2022-12-08T01:56:52.139Z,59.10
2022-12-08T01:59:20.533Z,59.10
2022-12-08T02:01:51.796Z,58.86
2022-12-08T02:04:19.518Z,59.12
2022-12-08T02:06:47.754Z,59.44
2022-12-08T02:09:15.470Z,59.15
2022-12-08T02:11:43.082Z,58.94
2022-12-08T02:14:11.577Z,59.08
2022-12-08T02:16:56.552Z,59.58
2022-12-08T02:19:37.480Z,59.43
2022-12-08T02:22:13.708Z,59.12
2022-12-08T02:24:51.928Z,59.25
2022-12-08T02:27:49.222Z,59.54
2022-12-08T02:30:32.009Z,59.60
2022-12-08T02:33:03.464Z,60.09
2022-12-08T02:35:57.753Z,60.43
2022-12-08T02:38:24.914Z,60.12
2022-12-08T02:41:26.026Z,60.14
2022-12-08T02:44:11.202Z,60.38
2022-12-08T02:46:45.875Z,60.87
2022-12-08T02:49:15.223Z,60.45
2022-12-08T02:51:42.872Z,60.03
2022-12-08T02:54:10.619Z,60.36
2022-12-08T02:57:05.565Z,60.70
2022-12-08T02:59:43.039Z,60.89
2022-12-08T03:02:21.722Z,60.60
2022-12-08T03:05:02.292Z,60.38
2022-12-08T03:07:39.117Z,60.43
2022-12-08T03:10:19.598Z,60.18
2022-12-08T03:12:50.514Z,60.68
2022-12-08T03:15:19.766Z,60.46
2022-12-08T03:17:51.079Z,61.04
2022-12-08T03:20:21.841Z,60.43
2022-12-08T03:22:51.097Z,60.36
2022-12-08T03:25:21.663Z,60.36
2022-12-08T03:27:49.325Z,59.97
2022-12-08T03:30:17.147Z,59.69
2022-12-08T03:32:51.309Z,60.04
2022-12-08T03:35:24.970Z,59.96
2022-12-08T03:37:52.612Z,60.47
2022-12-08T03:40:21.031Z,60.08
2022-12-08T03:42:48.348Z,60.02
2022-12-08T03:45:16.166Z,60.00
2022-12-08T03:47:43.652Z,59.44
2022-12-08T03:50:11.703Z,59.48
2022-12-08T03:52:39.307Z,59.45
2022-12-08T03:55:07.096Z,60.04
2022-12-08T03:57:34.439Z,59.86
2022-12-08T04:00:02.890Z,59.76
2022-12-08T04:02:32.439Z,59.73
2022-12-08T04:05:00.091Z,59.68
2022-12-08T04:07:27.415Z,59.64
2022-12-08T04:09:54.726Z,59.61
2022-12-08T04:12:22.332Z,60.04
2022-12-08T04:14:49.679Z,60.23
2022-12-08T04:17:17.097Z,59.93
2022-12-08T04:19:44.736Z,60.27
2022-12-08T04:22:12.093Z,60.19
2022-12-08T04:24:39.447Z,60.49
2022-12-08T04:27:07.032Z,60.53
2022-12-08T04:29:34.318Z,60.38
2022-12-08T04:32:01.669Z,60.25
2022-12-08T04:34:29.288Z,59.89
2022-12-08T04:36:56.644Z,59.83
2022-12-08T04:39:24.129Z,59.98
2022-12-08T04:41:51.856Z,59.85
2022-12-08T04:44:19.194Z,59.56
2022-12-08T04:46:46.688Z,60.03
2022-12-08T04:49:14.294Z,60.34
2022-12-08T04:51:41.659Z,60.19
2022-12-08T04:54:08.975Z,59.86
2022-12-08T04:56:36.770Z,60.35
2022-12-08T04:59:04.132Z,60.15
2022-12-08T05:01:31.619Z,59.92
2022-12-08T05:03:59.331Z,59.96
2022-12-08T05:06:26.792Z,60.30
2022-12-08T05:08:54.192Z,60.11
2022-12-08T05:11:21.839Z,60.05
2022-12-08T05:13:49.172Z,60.07
2022-12-08T05:16:16.994Z,60.15
2022-12-08T05:18:44.627Z,59.87
2022-12-08T05:21:12.026Z,59.90
2022-12-08T05:23:39.391Z,59.96
2022-12-08T05:26:07.021Z,60.49
2022-12-08T05:28:43.101Z,60.55
2022-12-08T05:31:12.943Z,60.47
2022-12-08T05:33:40.885Z,60.58
2022-12-08T05:36:09.291Z,60.73
2022-12-08T05:38:36.964Z,60.50
2022-12-08T05:41:06.170Z,60.44
2022-12-08T05:43:33.584Z,60.07
2022-12-08T05:46:01.294Z,59.94
2022-12-08T05:48:28.770Z,60.75
2022-12-08T05:50:56.335Z,60.87
2022-12-08T05:53:23.943Z,61.08
2022-12-08T05:55:51.287Z,60.65
2022-12-08T05:58:20.303Z,60.66
2022-12-08T06:00:48.929Z,60.65
2022-12-08T06:03:18.547Z,60.44
2022-12-08T06:05:46.991Z,61.17
2022-12-08T06:08:14.498Z,60.60
2022-12-08T06:10:43.511Z,60.64
2022-12-08T06:13:11.085Z,60.14
2022-12-08T06:15:39.328Z,60.56
2022-12-08T06:18:07.486Z,60.80
2022-12-08T06:20:34.965Z,60.83
2022-12-08T06:23:03.446Z,60.71
2022-12-08T06:25:31.072Z,60.86
2022-12-08T06:27:58.429Z,60.91
2022-12-08T06:30:26.056Z,60.69
2022-12-08T06:32:53.802Z,60.31
2022-12-08T06:35:21.167Z,60.63
2022-12-08T06:37:48.724Z,60.94
2022-12-08T06:40:16.399Z,60.72
2022-12-08T06:42:44.713Z,60.67
2022-12-08T06:45:13.316Z,60.54
2022-12-08T06:47:41.045Z,60.23
2022-12-08T06:50:09.745Z,60.43
2022-12-08T06:52:45.660Z,60.44
2022-12-08T06:55:35.305Z,60.51
2022-12-08T06:58:02.592Z,60.70
2022-12-08T07:00:30.311Z,61.06
2022-12-08T07:02:57.979Z,60.87
2022-12-08T07:05:25.369Z,60.70
2022-12-08T07:07:53.038Z,60.66
2022-12-08T07:10:20.399Z,60.28
2022-12-08T07:12:47.766Z,60.10
2022-12-08T07:15:16.225Z,59.67
2022-12-08T07:17:43.589Z,60.45
2022-12-08T07:20:11.191Z,59.95
2022-12-08T07:22:39.600Z,64.24
2022-12-08T07:25:07.356Z,64.77
2022-12-08T07:27:34.657Z,64.43
2022-12-08T07:30:02.576Z,63.28
2022-12-08T07:32:30.206Z,62.74
2022-12-08T07:34:57.517Z,61.49
2022-12-08T07:37:25.086Z,61.08
2022-12-08T07:39:52.388Z,61.22
2022-12-08T07:42:19.721Z,60.39
2022-12-08T07:44:47.442Z,59.80
2022-12-08T07:47:14.734Z,59.93
2022-12-08T07:49:42.223Z,59.99
2022-12-08T07:52:09.841Z,59.42
2022-12-08T07:54:37.238Z,59.04
2022-12-08T07:57:06.030Z,59.19
2022-12-08T07:59:33.640Z,59.56
2022-12-08T08:02:22.699Z,59.30
2022-12-08T08:04:51.612Z,59.50
2022-12-08T08:07:19.120Z,59.48
2022-12-08T08:09:46.524Z,59.18
2022-12-08T08:12:30.779Z,59.07
2022-12-08T08:15:07.414Z,59.00
2022-12-08T08:17:36.493Z,58.78
2022-12-08T08:20:07.256Z,58.97
2022-12-08T08:22:36.030Z,59.03
2022-12-08T08:25:03.964Z,61.96
2022-12-08T08:27:31.327Z,69.80
2022-12-08T08:29:58.924Z,68.74
2022-12-08T08:32:26.250Z,65.75
2022-12-08T08:34:53.627Z,60.60
2022-12-08T08:37:21.310Z,58.44
2022-12-08T08:39:48.930Z,57.36
2022-12-08T08:42:16.548Z,56.88
2022-12-08T08:44:44.120Z,57.42
2022-12-08T08:47:11.563Z,57.69
2022-12-08T08:49:38.877Z,57.92
2022-12-08T08:52:06.938Z,57.60
2022-12-08T08:54:34.628Z,57.97
2022-12-08T08:57:02.284Z,57.97
2022-12-08T08:59:30.159Z,58.14
2022-12-08T09:01:57.797Z,57.94
2022-12-08T09:04:25.669Z,57.77
2022-12-08T09:06:53.396Z,57.48
2022-12-08T09:09:20.764Z,57.98
2022-12-08T09:11:48.089Z,58.41
2022-12-08T09:14:15.850Z,57.84
2022-12-08T09:16:43.310Z,57.79
2022-12-08T09:19:10.730Z,57.33
2022-12-08T09:21:39.790Z,57.63
2022-12-08T09:24:08.306Z,58.27
2022-12-08T09:26:35.623Z,61.01
2022-12-08T09:29:03.248Z,60.78
2022-12-08T09:31:30.768Z,59.85
2022-12-08T09:33:59.240Z,59.25
2022-12-08T09:36:26.929Z,58.32
2022-12-08T09:38:54.707Z,59.14
2022-12-08T09:41:36.862Z,58.19
2022-12-08T09:44:23.402Z,57.32
2022-12-08T09:46:52.631Z,56.19
2022-12-08T09:49:23.447Z,55.46
2022-12-08T09:51:50.812Z,55.20
2022-12-08T09:54:32.110Z,54.44
2022-12-08T09:57:01.566Z,53.61
2022-12-08T09:59:31.882Z,52.86
2022-12-08T10:02:00.683Z,52.54
2022-12-08T10:04:35.206Z,52.09
2022-12-08T10:07:30.797Z,52.39
2022-12-08T10:10:27.573Z,52.48
2022-12-08T10:13:06.039Z,52.13
2022-12-08T10:15:52.423Z,51.69
2022-12-08T10:18:25.444Z,53.27
2022-12-08T10:20:53.584Z,52.48
2022-12-08T10:23:34.379Z,52.07
2022-12-08T10:26:05.047Z,53.21
2022-12-08T10:28:34.074Z,51.60
2022-12-08T10:31:01.790Z,50.98
2022-12-08T10:33:32.237Z,50.87
2022-12-08T10:36:03.133Z,50.91
2022-12-08T10:38:38.549Z,51.48
2022-12-08T10:41:11.880Z,50.91
2022-12-08T10:43:49.352Z,50.42
2022-12-08T10:46:28.387Z,51.34
2022-12-08T10:49:17.231Z,50.65
2022-12-08T10:51:44.594Z,50.39
2022-12-08T10:54:34.787Z,50.52
2022-12-08T10:57:02.170Z,50.59
2022-12-08T10:59:33.411Z,50.13
2022-12-08T11:02:01.032Z,49.95
2022-12-08T11:04:36.420Z,50.07
2022-12-08T11:07:05.982Z,50.47
2022-12-08T11:09:48.577Z,50.30
2022-12-08T11:12:18.053Z,50.46
2022-12-08T11:14:45.801Z,50.45
2022-12-08T11:17:24.690Z,50.59
2022-12-08T11:20:10.489Z,50.66
2022-12-08T11:22:39.968Z,50.41
2022-12-08T11:25:07.517Z,50.53
2022-12-08T11:27:39.228Z,50.37
2022-12-08T11:30:17.560Z,50.72
2022-12-08T11:32:48.777Z,50.71
2022-12-08T11:35:21.299Z,50.87
2022-12-08T11:37:48.993Z,50.65
2022-12-08T11:40:21.168Z,50.70
2022-12-08T11:42:58.021Z,50.52
2022-12-08T11:45:28.456Z,50.49
2022-12-08T11:48:06.643Z,50.33
2022-12-08T11:50:56.598Z,50.41
2022-12-08T11:53:40.269Z,50.25
2022-12-08T11:56:17.679Z,50.51
2022-12-08T11:58:49.611Z,50.58
2022-12-08T12:01:21.139Z,50.88
2022-12-08T12:03:52.620Z,50.50
2022-12-08T12:06:53.694Z,50.43
2022-12-08T12:09:37.743Z,50.01
2022-12-08T12:12:43.994Z,49.96
2022-12-08T12:15:40.863Z,50.79
2022-12-08T12:18:50.075Z,50.76
2022-12-08T12:21:33.513Z,50.82
2022-12-08T12:24:08.141Z,51.53
2022-12-08T12:26:38.300Z,51.26
2022-12-08T12:29:17.422Z,50.81
2022-12-08T12:31:52.455Z,50.55
2022-12-08T12:34:24.290Z,51.13
2022-12-08T12:36:54.857Z,50.98
2022-12-08T12:39:26.543Z,50.91
2022-12-08T12:42:00.111Z,50.84
2022-12-08T12:44:33.424Z,51.28
2022-12-08T12:47:02.900Z,51.01
2022-12-08T12:49:39.580Z,50.38
2022-12-08T12:52:10.153Z,50.51
2022-12-08T12:54:42.305Z,50.71
2022-12-08T12:57:09.785Z,50.65
2022-12-08T13:00:05.207Z,51.04
2022-12-08T13:02:46.577Z,50.66
2022-12-08T13:05:27.017Z,51.02
2022-12-08T13:07:58.193Z,51.12
2022-12-08T13:10:29.344Z,50.90
2022-12-08T13:13:12.633Z,50.96
2022-12-08T13:16:26.217Z,50.97
2022-12-08T13:19:04.311Z,51.66
2022-12-08T13:21:35.179Z,51.22
2022-12-08T13:24:19.802Z,51.61
2022-12-08T13:27:07.343Z,51.39
2022-12-08T13:29:35.719Z,51.46
2022-12-08T13:32:04.123Z,51.10
2022-12-08T13:34:45.426Z,51.22
2022-12-08T13:37:15.911Z,51.28
2022-12-08T13:39:56.541Z,51.29
2022-12-08T13:42:36.289Z,51.02
2022-12-08T13:45:33.635Z,50.95
2022-12-08T13:48:25.628Z,50.95
2022-12-08T13:57:19.003Z,51.05
2022-12-08T13:59:47.001Z,50.90
2022-12-08T14:02:31.803Z,50.75
2022-12-08T14:07:48.656Z,51.20
2022-12-08T14:10:26.303Z,51.17
2022-12-08T14:12:59.919Z,51.13
2022-12-08T14:15:31.386Z,50.80
2022-12-08T14:18:03.035Z,50.52
2022-12-08T14:20:33.835Z,50.47
2022-12-08T14:23:09.845Z,50.42
2022-12-08T14:25:38.723Z,50.33
2022-12-08T14:28:06.323Z,50.21
2022-12-08T14:30:34.652Z,50.91
2022-12-08T14:33:03.775Z,51.39
2022-12-08T14:35:33.357Z,51.94
2022-12-08T14:38:06.153Z,51.75
2022-12-08T14:40:42.016Z,51.99
2022-12-08T14:43:09.302Z,52.58
2022-12-08T14:45:42.906Z,53.02
2022-12-08T14:48:21.995Z,53.35
2022-12-08T14:51:14.383Z,53.21
2022-12-08T14:53:52.572Z,53.42
2022-12-08T14:56:46.148Z,53.75
2022-12-08T14:59:34.591Z,53.78
2022-12-08T15:02:24.223Z,53.66
2022-12-08T15:05:11.053Z,53.65
2022-12-08T15:07:54.655Z,53.33
2022-12-08T15:10:25.248Z,53.18
2022-12-08T15:13:10.967Z,53.06
2022-12-08T15:15:55.814Z,52.92
2022-12-08T15:18:38.323Z,52.92
2022-12-08T15:21:08.987Z,53.38
2022-12-08T15:23:39.351Z,53.11
2022-12-08T15:26:06.779Z,53.03
2022-12-08T15:28:34.233Z,53.56
2022-12-08T15:31:01.866Z,53.72
2022-12-08T15:33:29.203Z,54.14
2022-12-08T15:35:56.562Z,55.98
2022-12-08T15:38:26.428Z,54.61
2022-12-08T15:40:54.474Z,54.09
2022-12-08T15:43:22.539Z,53.25
2022-12-08T15:45:59.839Z,52.75
2022-12-08T15:48:29.276Z,52.94
2022-12-08T15:50:57.720Z,53.71
2022-12-08T15:53:25.328Z,53.46
2022-12-08T15:56:25.760Z,53.58
2022-12-08T15:58:57.342Z,53.83
2022-12-08T16:01:26.086Z,53.73
2022-12-08T16:04:47.452Z,53.56
2022-12-08T16:09:38.606Z,54.12
2022-12-08T16:12:35.547Z,53.79
2022-12-08T16:18:03.040Z,53.92
2022-12-08T16:21:05.232Z,53.96
2022-12-08T16:23:34.714Z,53.63
2022-12-08T16:26:24.061Z,54.01
2022-12-08T16:28:54.949Z,53.79
2022-12-08T16:31:23.681Z,54.11
2022-12-08T16:33:51.267Z,54.55
2022-12-08T16:36:18.575Z,53.92
2022-12-08T16:38:46.220Z,54.16
2022-12-08T16:41:36.102Z,54.13
2022-12-08T16:44:05.869Z,54.09
2022-12-08T16:46:33.571Z,53.80
2022-12-08T16:49:00.951Z,56.61
2022-12-08T16:51:28.633Z,63.52
2022-12-08T16:53:57.026Z,59.01
2022-12-08T16:56:30.620Z,54.50
2022-12-08T16:59:00.709Z,53.29
2022-12-08T17:01:28.100Z,53.61
2022-12-08T17:04:29.299Z,53.16
2022-12-08T17:06:43.046Z,53.56
2022-12-08T17:09:10.463Z,53.65
2022-12-08T17:11:42.940Z,53.58
2022-12-08T17:14:14.941Z,53.58
2022-12-08T17:16:42.981Z,53.54
2022-12-08T17:19:12.795Z,53.25
2022-12-08T17:21:40.309Z,53.35
2022-12-08T17:24:07.762Z,53.43
2022-12-08T17:26:35.444Z,53.50
2022-12-08T17:29:03.899Z,53.47
2022-12-08T17:31:32.432Z,53.48
2022-12-08T17:34:05.662Z,53.89
2022-12-08T17:36:33.046Z,53.77
2022-12-08T17:39:01.153Z,57.53
2022-12-08T17:41:29.006Z,56.34
2022-12-08T17:43:56.431Z,53.86
2022-12-08T17:46:24.451Z,54.25
2022-12-08T17:48:52.056Z,54.63
2022-12-08T17:51:19.771Z,54.79
2022-12-08T17:53:47.451Z,55.05
2022-12-08T17:56:20.199Z,56.06
2022-12-08T17:58:52.937Z,56.43
2022-12-08T18:01:23.462Z,56.52
2022-12-08T18:03:51.608Z,56.30
2022-12-08T18:06:18.982Z,56.43
2022-12-08T18:08:46.439Z,56.34
2022-12-08T18:11:17.663Z,55.80
2022-12-08T18:13:45.889Z,55.82
2022-12-08T18:16:14.047Z,55.22
2022-12-08T18:18:41.996Z,55.20
2022-12-08T18:21:09.912Z,55.48
2022-12-08T18:23:38.106Z,54.99
2022-12-08T18:26:07.299Z,54.63
2022-12-08T18:28:35.603Z,54.86
2022-12-08T18:31:17.371Z,54.46
2022-12-08T18:33:46.623Z,54.33
2022-12-08T18:36:17.047Z,54.49
2022-12-08T18:38:44.945Z,54.61
2022-12-08T18:41:17.918Z,55.13
2022-12-08T18:43:45.723Z,54.96
2022-12-08T18:46:14.443Z,54.21
2022-12-08T18:48:47.661Z,54.23
2022-12-08T18:51:20.881Z,54.14
2022-12-08T18:53:48.308Z,53.89
2022-12-08T18:56:25.371Z,53.99
2022-12-08T18:58:54.028Z,53.35
2022-12-08T19:01:24.267Z,53.60
2022-12-08T19:04:19.872Z,53.05
2022-12-08T19:06:40.502Z,53.21
2022-12-08T19:09:09.063Z,53.10
2022-12-08T19:11:36.396Z,53.25
2022-12-08T19:14:04.655Z,53.32
2022-12-08T19:16:32.012Z,53.15
2022-12-08T19:18:59.390Z,53.12
2022-12-08T19:21:27.303Z,53.10
2022-12-08T19:23:58.246Z,52.98
2022-12-08T19:26:27.388Z,52.73
2022-12-08T19:28:55.012Z,52.82
2022-12-08T19:31:22.467Z,52.67
2022-12-08T19:33:49.943Z,52.84
2022-12-08T19:36:20.824Z,52.95
2022-12-08T19:39:07.247Z,52.55
2022-12-08T19:41:55.209Z,52.75
2022-12-08T19:44:46.558Z,52.89
2022-12-08T19:47:14.694Z,52.86
2022-12-08T19:49:42.099Z,52.79
2022-12-08T19:52:09.582Z,53.29
2022-12-08T19:54:37.243Z,53.09
2022-12-08T19:57:04.582Z,53.05
2022-12-08T19:59:31.946Z,53.04
2022-12-08T20:02:00.167Z,53.14
2022-12-08T20:04:27.874Z,53.07
2022-12-08T20:06:56.469Z,53.29
2022-12-08T20:09:24.260Z,53.07
2022-12-08T20:11:54.680Z,53.39
2022-12-08T20:14:22.780Z,53.55
2022-12-08T20:16:50.660Z,53.12
2022-12-08T20:19:18.652Z,53.02
2022-12-08T20:21:46.004Z,53.33
2022-12-08T20:24:13.392Z,53.44
2022-12-08T20:26:41.090Z,53.57
2022-12-08T20:29:08.915Z,53.58
2022-12-08T20:31:36.344Z,53.66
2022-12-08T20:34:04.071Z,53.74
2022-12-08T20:36:31.530Z,53.72
2022-12-08T20:38:58.927Z,53.74
2022-12-08T20:41:26.583Z,53.74
2022-12-08T20:43:54.383Z,53.69
2022-12-08T20:46:21.889Z,53.98
2022-12-08T20:48:49.737Z,53.75
2022-12-08T20:51:18.871Z,54.01
2022-12-08T20:53:46.447Z,53.87
2022-12-08T20:56:19.149Z,54.16
2022-12-08T20:58:47.043Z,54.07
2022-12-08T21:01:16.797Z,53.91
2022-12-08T21:03:45.479Z,54.06
2022-12-08T21:06:13.608Z,54.08
2022-12-08T21:08:42.335Z,54.26
2022-12-08T21:11:10.101Z,54.18
2022-12-08T21:13:38.598Z,57.30
2022-12-08T21:16:06.704Z,54.46
2022-12-08T21:18:39.234Z,54.22
2022-12-08T21:21:11.272Z,54.26
2022-12-08T21:23:38.970Z,54.48
2022-12-08T21:26:13.757Z,54.29
2022-12-08T21:28:41.999Z,54.51
2022-12-08T21:31:10.853Z,54.65
2022-12-08T21:33:38.828Z,55.07
2022-12-08T21:36:09.133Z,54.92
2022-12-08T21:38:38.190Z,54.51
2022-12-08T21:41:08.263Z,54.88
2022-12-08T21:43:36.367Z,54.77
2022-12-08T21:46:04.329Z,54.81
2022-12-08T21:48:31.859Z,54.64
2022-12-08T21:51:04.721Z,54.88
2022-12-08T21:53:32.431Z,54.87
2022-12-08T21:55:59.832Z,54.88
2022-12-08T21:58:27.220Z,54.72
2022-12-08T22:00:54.875Z,54.69
2022-12-08T22:03:22.963Z,54.94
2022-12-08T22:05:50.836Z,55.14
2022-12-08T22:08:18.236Z,55.11
2022-12-08T22:10:48.977Z,55.27
2022-12-08T22:13:16.525Z,55.43
2022-12-08T22:15:44.627Z,55.20
2022-12-08T22:18:12.439Z,55.17
2022-12-08T22:20:43.919Z,55.19
2022-12-08T22:23:12.196Z,55.15
2022-12-08T22:25:39.505Z,55.23
2022-12-08T22:28:06.885Z,55.68
2022-12-08T22:30:39.030Z,55.48
2022-12-08T22:33:06.778Z,55.55
2022-12-08T22:35:34.354Z,55.54
2022-12-08T22:38:01.643Z,55.66
2022-12-08T22:40:29.165Z,55.80
2022-12-08T22:42:57.318Z,55.71
2022-12-08T22:45:24.824Z,55.85
2022-12-08T22:47:52.338Z,55.75
2022-12-08T22:50:19.893Z,55.79
2022-12-08T22:52:47.424Z,55.92
2022-12-08T22:55:14.922Z,55.93
2022-12-08T22:57:42.724Z,55.87
2022-12-08T23:00:11.617Z,55.91
2022-12-08T23:02:39.439Z,56.15
2022-12-08T23:05:07.296Z,55.93
2022-12-08T23:07:34.749Z,55.76
2022-12-08T23:10:02.210Z,55.96
2022-12-08T23:12:29.849Z,56.15
2022-12-08T23:14:57.489Z,56.08
2022-12-08T23:17:25.709Z,56.37
2022-12-08T23:19:53.740Z,56.27
2022-12-08T23:22:21.139Z,56.15
2022-12-08T23:24:48.596Z,56.33
2022-12-08T23:27:16.244Z,56.06
2022-12-08T23:29:43.832Z,56.50
2022-12-08T23:32:11.308Z,56.47
2022-12-08T23:34:39.223Z,56.52
2022-12-08T23:37:06.708Z,56.69
2022-12-08T23:39:34.527Z,56.99
2022-12-08T23:42:02.521Z,56.82
2022-12-08T23:44:30.050Z,56.66
2022-12-08T23:46:57.561Z,56.68
2022-12-08T23:49:25.254Z,56.91
2022-12-08T23:51:52.575Z,56.90
2022-12-08T23:54:19.880Z,56.86
2022-12-08T23:56:47.462Z,56.72
2022-12-08T23:59:14.864Z,57.01
